Главная страница
METAR-TAF:

METAR-TAF

Аэропорты :

Бурленге, Швеция

широта: 60-26N, долгота: 015-31E, высота над уровнем моря: 145 м

Текущие метеонаблюдения

Эта сводка был подготовлена 28 минут назад, в 14:20 UTC
Ветер 2 Узел от восточно-юго-восточный
Температура 1°C
Влажность 93%
Давление 1024 hPa
Видимость 10 км и более
Сплошная облачность на высоте 300 фута

METAR: ESSD 151420Z 11002KT 9999 OVC003 01/00 Q1024

Время: 15:48 (14:48 UTC)

Прогноз

Эта сводка был подготовлена 2 часа и 51 минут назад, в 11:57 UTC
Прогноз действительный с 15-го 12 UTC до 15-го 16 UTC
Ветер 2 Узел переменных направлений
Видимость 10 км и более
Отдельные облака на высоте 300 фута
Рассеянная облачность на высоте 2500 фута
Вероятность 40%
С 15-го 12 UTC до 15-го 16 UTC
Видимость: 0700 м
Рассеянная облачность на высоте 200 фута
туман

TAF: ESSD 151157Z 1512/1516 VRB02KT 9999 SCT003 BKN025 PROB40 1512/1516 0700 FG BKN002

Метеонаблюдения и прогнозы для более 4000 аэропортов (сводки METAR и TAF).

Имеющиеся станции представлены на карте желтыми и красными точками.

Чтобы увидеть название станции, наведите на нее мышь.

Затем щелкните, чтобы увидеть метеонаблюдения и метеопрогнозы.

Управление картой: чтобы увеличить масштаб, щелкните зеленые кнопки с черным крестиком; чтобы уменьшить масштаб, щелкните зеленую кнопку с тире; для просмотра соседних карт щелкайте зеленые стрелки.


METAR-TAF: